createdAt,value
2022-12-15T00:02:23.195Z,24.17
2022-12-15T00:05:08.650Z,22.92
2022-12-15T00:07:53.953Z,21.23
2022-12-15T00:10:39.740Z,23.95
2022-12-15T00:13:32.663Z,22.75
2022-12-15T00:16:18.126Z,22.38
2022-12-15T00:19:03.401Z,21.88
2022-12-15T00:21:48.923Z,21.48
2022-12-15T00:24:34.426Z,21.88
2022-12-15T00:27:19.863Z,22.55
2022-12-15T00:30:05.314Z,20.67
2022-12-15T00:32:50.867Z,23.25
2022-12-15T00:35:36.271Z,22.05
2022-12-15T00:38:29.724Z,22.27
2022-12-15T00:40:59.669Z,21.65
2022-12-15T00:43:34.924Z,19.92
2022-12-15T00:46:21.559Z,21.10
2022-12-15T00:48:49.019Z,21.90
2022-12-15T00:51:16.611Z,21.20
2022-12-15T00:54:02.252Z,22.17
2022-12-15T00:56:48.294Z,20.83
2022-12-15T00:59:34.281Z,22.20
2022-12-15T01:02:20.335Z,21.63
2022-12-15T01:05:06.376Z,20.13
2022-12-15T01:07:52.282Z,21.70
2022-12-15T01:10:37.933Z,22.92
2022-12-15T01:13:24.429Z,22.13
2022-12-15T01:16:10.063Z,25.30
2022-12-15T01:18:55.567Z,21.40
2022-12-15T01:21:24.914Z,24.13
2022-12-15T01:23:52.947Z,22.75
2022-12-15T01:26:20.259Z,21.05
2022-12-15T01:28:47.044Z,23.67
2022-12-15T01:31:14.386Z,22.92
2022-12-15T01:33:42.779Z,23.75
2022-12-15T01:36:10.606Z,24.48
2022-12-15T01:38:37.928Z,24.90
2022-12-15T01:41:07.976Z,22.98
2022-12-15T01:43:38.049Z,21.98
2022-12-15T01:46:14.013Z,23.05
2022-12-15T01:48:59.849Z,21.63
2022-12-15T01:51:33.740Z,19.73
2022-12-15T01:54:06.437Z,17.17
2022-12-15T01:56:38.143Z,17.95
2022-12-15T01:59:08.927Z,18.38
2022-12-15T02:01:35.837Z,17.67
2022-12-15T02:04:03.515Z,18.50
2022-12-15T02:06:30.697Z,16.92
2022-12-15T02:09:00.029Z,19.00
2022-12-15T02:11:29.928Z,15.82
2022-12-15T02:14:03.498Z,16.83
2022-12-15T02:16:48.439Z,15.30
2022-12-15T02:19:40.227Z,17.92
2022-12-15T02:22:18.305Z,15.93
2022-12-15T02:24:55.234Z,16.63
2022-12-15T02:27:30.949Z,16.98
2022-12-15T02:30:17.270Z,16.40
2022-12-15T02:33:13.868Z,17.67
2022-12-15T02:36:09.479Z,15.48
2022-12-15T02:38:38.891Z,17.27
2022-12-15T02:41:26.534Z,17.20
2022-12-15T02:43:53.547Z,18.33
2022-12-15T02:46:41.756Z,16.63
2022-12-15T02:49:40.783Z,17.65
2022-12-15T02:52:27.083Z,15.48
2022-12-15T02:55:27.298Z,16.17
2022-12-15T02:58:02.165Z,16.25
2022-12-15T03:00:35.461Z,17.02
2022-12-15T03:03:02.399Z,19.65
2022-12-15T03:05:31.884Z,17.35
2022-12-15T03:07:58.655Z,16.95
2022-12-15T03:10:26.457Z,16.23
2022-12-15T03:12:54.552Z,16.60
2022-12-15T03:15:21.634Z,17.65
2022-12-15T03:17:48.381Z,17.38
2022-12-15T03:20:16.027Z,16.92
2022-12-15T03:22:42.755Z,17.95
2022-12-15T03:25:09.697Z,17.75
2022-12-15T03:27:37.952Z,19.33
2022-12-15T03:30:05.870Z,18.08
2022-12-15T03:32:32.601Z,18.77
2022-12-15T03:34:59.342Z,15.93
2022-12-15T03:37:26.099Z,15.70
2022-12-15T03:39:52.777Z,15.68
2022-12-15T03:42:39.609Z,15.25
2022-12-15T03:45:06.865Z,17.33
2022-12-15T03:47:33.748Z,17.38
2022-12-15T03:50:00.520Z,18.30
2022-12-15T03:52:27.372Z,19.13
2022-12-15T03:54:54.108Z,18.80
2022-12-15T03:57:21.032Z,17.23
2022-12-15T03:59:47.753Z,18.20
2022-12-15T04:02:14.723Z,17.75
2022-12-15T04:04:41.584Z,18.63
2022-12-15T04:07:09.413Z,18.20
2022-12-15T04:09:37.138Z,19.45
2022-12-15T04:12:03.939Z,17.45
2022-12-15T04:14:30.822Z,18.45
2022-12-15T04:16:57.949Z,19.60
2022-12-15T04:19:43.399Z,17.38
2022-12-15T04:22:16.368Z,17.95
2022-12-15T04:25:03.005Z,18.38
2022-12-15T04:27:48.289Z,20.42
2022-12-15T04:30:33.942Z,20.30
2022-12-15T04:33:20.342Z,19.33
2022-12-15T04:36:06.559Z,19.33
2022-12-15T04:38:52.026Z,21.25
2022-12-15T04:41:39.922Z,21.85
2022-12-15T04:44:25.517Z,19.05
2022-12-15T04:47:11.120Z,20.23
2022-12-15T04:49:56.420Z,21.77
2022-12-15T04:52:42.033Z,22.42
2022-12-15T04:55:27.638Z,21.98
2022-12-15T04:58:13.074Z,23.20
2022-12-15T05:00:58.698Z,24.83
2022-12-15T05:03:44.068Z,23.25
2022-12-15T05:06:29.574Z,24.85
2022-12-15T05:09:15.156Z,23.70
2022-12-15T05:12:00.401Z,24.95
2022-12-15T05:14:45.634Z,25.67
2022-12-15T05:17:41.198Z,25.30
2022-12-15T05:20:27.553Z,26.63
2022-12-15T05:23:16.673Z,26.80
2022-12-15T05:26:03.130Z,26.58
2022-12-15T05:28:48.824Z,24.95
2022-12-15T05:31:34.660Z,26.92
2022-12-15T05:34:05.488Z,27.10
2022-12-15T05:36:33.191Z,24.95
2022-12-15T05:39:00.034Z,25.90
2022-12-15T05:41:26.940Z,24.95
2022-12-15T05:43:53.750Z,25.20
2022-12-15T05:46:20.671Z,25.10
2022-12-15T05:48:47.702Z,24.58
2022-12-15T05:51:15.281Z,24.00
2022-12-15T05:53:42.803Z,23.90
2022-12-15T05:56:12.295Z,25.13
2022-12-15T05:58:44.816Z,25.48
2022-12-15T06:01:17.539Z,26.48
2022-12-15T06:03:44.884Z,25.27
2022-12-15T06:06:13.185Z,29.73
2022-12-15T06:08:42.757Z,26.98
2022-12-15T06:11:14.261Z,28.10
2022-12-15T06:13:41.077Z,27.45
2022-12-15T06:16:12.105Z,28.98
2022-12-15T06:18:50.514Z,27.92
2022-12-15T06:21:20.217Z,29.40
2022-12-15T06:23:48.082Z,25.15
2022-12-15T06:26:22.943Z,28.92
2022-12-15T06:28:50.423Z,27.50
2022-12-15T06:31:19.792Z,28.38
2022-12-15T06:33:46.524Z,28.30
2022-12-15T06:36:15.523Z,28.95
2022-12-15T06:38:45.671Z,26.70
2022-12-15T06:41:18.981Z,26.60
2022-12-15T06:43:58.309Z,28.92
2022-12-15T06:46:26.688Z,30.38
2022-12-15T06:48:53.671Z,26.80
2022-12-15T06:51:20.661Z,29.48
2022-12-15T06:53:54.085Z,30.00
2022-12-15T06:56:27.278Z,22.23
2022-12-15T06:58:59.360Z,31.85
2022-12-15T07:01:26.581Z,31.63
2022-12-15T07:03:54.101Z,32.45
2022-12-15T07:06:21.303Z,32.65
2022-12-15T07:08:53.929Z,31.13
2022-12-15T07:11:21.813Z,31.23
2022-12-15T07:13:52.984Z,32.30
2022-12-15T07:16:21.559Z,31.88
2022-12-15T07:18:49.489Z,33.13
2022-12-15T07:21:16.655Z,33.80
2022-12-15T07:23:54.766Z,32.00
2022-12-15T07:26:23.711Z,35.40
2022-12-15T07:28:50.581Z,32.30
2022-12-15T07:31:18.132Z,31.15
2022-12-15T07:33:45.239Z,33.25
2022-12-15T07:36:12.117Z,33.70
2022-12-15T07:38:38.978Z,34.33
2022-12-15T07:41:07.773Z,34.25
2022-12-15T07:43:35.593Z,32.55
2022-12-15T07:46:04.032Z,32.15
2022-12-15T07:48:31.390Z,33.88
2022-12-15T07:51:07.236Z,34.75
2022-12-15T07:53:36.554Z,31.35
2022-12-15T07:56:08.068Z,35.40
2022-12-15T07:58:36.033Z,32.15
2022-12-15T08:01:05.638Z,34.17
2022-12-15T08:03:33.249Z,34.10
2022-12-15T08:06:05.484Z,33.33
2022-12-15T08:08:32.966Z,34.95
2022-12-15T08:11:03.899Z,34.13
2022-12-15T08:14:01.291Z,41.63
2022-12-15T08:16:17.552Z,36.63
2022-12-15T08:18:44.325Z,37.80
2022-12-15T08:21:11.868Z,38.53
2022-12-15T08:23:40.338Z,37.95
2022-12-15T08:26:09.769Z,36.42
2022-12-15T08:28:37.838Z,36.72
2022-12-15T08:31:05.192Z,39.55
2022-12-15T08:33:33.384Z,40.67
2022-12-15T08:36:03.132Z,37.97
2022-12-15T08:38:32.968Z,38.35
2022-12-15T08:41:07.764Z,35.83
2022-12-15T08:43:34.855Z,37.80
2022-12-15T08:46:01.945Z,36.55
2022-12-15T08:48:28.964Z,37.08
2022-12-15T08:50:56.826Z,39.35
2022-12-15T08:53:32.075Z,38.63
2022-12-15T08:56:04.619Z,38.50
2022-12-15T08:58:31.501Z,39.38
2022-12-15T09:01:10.688Z,41.03
2022-12-15T09:03:38.062Z,37.47
2022-12-15T09:06:13.561Z,38.70
2022-12-15T09:08:40.799Z,40.08
2022-12-15T09:11:07.550Z,38.83
2022-12-15T09:13:35.659Z,38.58
2022-12-15T09:16:10.629Z,40.30
2022-12-15T09:18:37.771Z,40.55
2022-12-15T09:21:07.208Z,39.13
2022-12-15T09:23:35.646Z,38.40
2022-12-15T09:26:04.885Z,39.40
2022-12-15T09:28:32.194Z,39.08
2022-12-15T09:31:11.549Z,43.13
2022-12-15T09:33:39.349Z,41.40
2022-12-15T09:36:06.837Z,40.38
2022-12-15T09:38:35.088Z,40.25
2022-12-15T09:41:13.926Z,40.88
2022-12-15T09:44:03.216Z,43.53
2022-12-15T09:46:35.989Z,44.13
2022-12-15T09:49:18.785Z,40.75
2022-12-15T09:52:22.086Z,39.67
2022-12-15T09:54:49.154Z,39.13
2022-12-15T09:57:25.787Z,39.03
2022-12-15T10:00:00.717Z,38.92
2022-12-15T10:02:52.495Z,41.40
2022-12-15T10:06:06.796Z,38.88
2022-12-15T10:08:30.643Z,41.53
2022-12-15T10:11:03.079Z,40.20
2022-12-15T10:13:47.461Z,41.20
2022-12-15T10:16:23.132Z,39.22
2022-12-15T10:19:13.358Z,38.85
2022-12-15T10:21:40.677Z,39.17
2022-12-15T10:24:31.664Z,39.88
2022-12-15T10:27:22.865Z,37.80
2022-12-15T10:30:09.958Z,40.80
2022-12-15T10:32:57.909Z,40.85
2022-12-15T10:35:29.419Z,38.50
2022-12-15T10:38:04.973Z,38.90
2022-12-15T10:40:56.436Z,40.40
2022-12-15T10:43:29.524Z,36.47
2022-12-15T10:46:18.987Z,38.93
2022-12-15T10:49:16.416Z,41.30
2022-12-15T10:51:50.116Z,39.03
2022-12-15T10:54:18.871Z,29.05
2022-12-15T10:56:57.247Z,38.75
2022-12-15T10:59:36.374Z,39.53
2022-12-15T11:02:24.612Z,37.50
2022-12-15T11:05:04.566Z,36.15
2022-12-15T11:07:38.624Z,38.85
2022-12-15T11:10:16.508Z,41.58
2022-12-15T11:12:58.183Z,41.08
2022-12-15T11:15:31.456Z,44.20
2022-12-15T11:17:58.364Z,40.55
2022-12-15T11:20:34.226Z,38.95
2022-12-15T11:23:16.308Z,41.67
2022-12-15T11:25:53.783Z,40.05
2022-12-15T11:28:41.191Z,39.72
2022-12-15T11:31:41.819Z,44.58
2022-12-15T11:34:27.615Z,43.75
2022-12-15T11:36:59.760Z,42.92
2022-12-15T11:39:56.429Z,40.97
2022-12-15T11:42:45.864Z,42.75
2022-12-15T11:45:33.159Z,42.35
2022-12-15T11:48:10.679Z,43.95
2022-12-15T11:50:58.911Z,45.03
2022-12-15T11:53:36.798Z,48.90
2022-12-15T11:56:28.264Z,46.42
2022-12-15T11:59:32.145Z,51.58
2022-12-15T12:02:29.877Z,53.45
2022-12-15T12:05:20.120Z,52.28
2022-12-15T12:07:51.902Z,51.33
2022-12-15T12:10:21.467Z,57.28
2022-12-15T12:13:12.894Z,50.92
2022-12-15T12:16:09.303Z,49.85
2022-12-15T12:18:44.077Z,52.72
2022-12-15T12:21:23.167Z,54.72
2022-12-15T12:23:56.346Z,59.88
2022-12-15T12:26:26.568Z,54.47
2022-12-15T12:29:16.492Z,55.38
2022-12-15T12:32:04.099Z,56.80
2022-12-15T12:34:37.918Z,57.03
2022-12-15T12:37:18.763Z,55.45
2022-12-15T12:39:46.400Z,60.83
2022-12-15T12:42:40.002Z,60.13
2022-12-15T12:45:11.008Z,57.67
2022-12-15T12:47:44.736Z,57.17
2022-12-15T12:50:22.494Z,64.10
2022-12-15T12:52:52.572Z,57.78
2022-12-15T12:55:27.504Z,62.75
2022-12-15T12:57:55.754Z,57.38
2022-12-15T13:00:27.219Z,63.40
2022-12-15T13:03:18.469Z,62.25
2022-12-15T13:05:48.820Z,60.05
2022-12-15T13:08:26.908Z,61.67
2022-12-15T13:10:55.379Z,62.15
2022-12-15T13:13:31.878Z,58.00
2022-12-15T13:16:13.906Z,58.60
2022-12-15T13:19:02.176Z,59.00
2022-12-15T13:21:58.444Z,55.95
2022-12-15T13:24:33.681Z,59.08
2022-12-15T13:27:09.465Z,61.45
2022-12-15T13:29:53.523Z,59.38
2022-12-15T13:32:36.610Z,57.80
2022-12-15T13:35:12.584Z,53.22
2022-12-15T13:38:08.438Z,54.38
2022-12-15T13:40:35.331Z,53.42
2022-12-15T13:43:05.160Z,56.60
2022-12-15T13:45:38.091Z,57.72
2022-12-15T13:48:45.901Z,55.70
2022-12-15T13:51:24.163Z,56.58
2022-12-15T13:54:12.218Z,53.90
2022-12-15T13:57:14.724Z,53.35
2022-12-15T14:00:07.147Z,50.58
2022-12-15T14:02:36.303Z,57.53
2022-12-15T14:05:18.838Z,53.45
2022-12-15T14:08:10.856Z,55.63
2022-12-15T14:10:43.069Z,59.58
2022-12-15T14:13:24.562Z,61.55
2022-12-15T14:15:55.651Z,57.72
2022-12-15T14:18:25.740Z,58.05
2022-12-15T14:20:53.033Z,59.63
2022-12-15T14:23:21.667Z,59.13
2022-12-15T14:26:01.834Z,55.63
2022-12-15T14:28:32.421Z,63.90
2022-12-15T14:31:11.798Z,59.30
2022-12-15T14:33:42.006Z,56.38
2022-12-15T14:36:12.353Z,61.20
2022-12-15T14:38:50.782Z,57.45
2022-12-15T14:41:24.369Z,55.85
2022-12-15T14:44:32.158Z,47.55
2022-12-15T14:46:47.885Z,61.05
2022-12-15T14:49:21.748Z,61.25
2022-12-15T14:51:52.164Z,62.38
2022-12-15T14:54:49.175Z,58.53
2022-12-15T14:57:40.535Z,58.30
2022-12-15T15:00:27.673Z,55.85
2022-12-15T15:03:19.926Z,67.00
2022-12-15T15:05:50.116Z,64.00
2022-12-15T15:08:33.462Z,59.67
2022-12-15T15:11:18.068Z,60.47
2022-12-15T15:13:45.939Z,55.97
2022-12-15T15:16:18.913Z,61.00
2022-12-15T15:18:50.708Z,59.17
2022-12-15T15:21:23.953Z,58.15
2022-12-15T15:24:09.585Z,57.90
2022-12-15T15:26:36.951Z,64.47
2022-12-15T15:29:05.525Z,60.13
2022-12-15T15:31:41.487Z,59.17
2022-12-15T15:34:09.952Z,59.38
2022-12-15T15:36:38.601Z,62.55
2022-12-15T15:39:13.737Z,61.38
2022-12-15T15:41:40.506Z,60.08
2022-12-15T15:44:14.319Z,59.65
2022-12-15T15:46:48.327Z,48.25
2022-12-15T15:49:19.200Z,56.72
2022-12-15T15:51:46.381Z,56.55
2022-12-15T15:54:23.670Z,57.72
2022-12-15T15:56:50.487Z,61.53
2022-12-15T15:59:21.131Z,60.25
2022-12-15T16:01:54.463Z,57.72
2022-12-15T16:04:22.074Z,45.63
2022-12-15T16:06:50.369Z,55.03
2022-12-15T16:09:17.166Z,60.38
2022-12-15T16:11:45.878Z,57.40
2022-12-15T16:14:14.330Z,58.78
2022-12-15T16:16:41.977Z,57.78
2022-12-15T16:19:08.975Z,62.67
2022-12-15T16:21:36.324Z,59.28
2022-12-15T16:24:15.184Z,55.22
2022-12-15T16:26:48.586Z,59.53
2022-12-15T16:29:17.341Z,63.70
2022-12-15T16:31:47.635Z,64.85
2022-12-15T16:34:19.335Z,61.90
2022-12-15T16:36:46.275Z,66.43
2022-12-15T16:39:27.664Z,67.18
2022-12-15T16:41:56.379Z,64.53
2022-12-15T16:44:24.608Z,74.05
2022-12-15T16:46:51.449Z,71.75
2022-12-15T16:49:18.342Z,77.32
2022-12-15T16:51:51.030Z,70.13
2022-12-15T16:54:23.067Z,69.85
2022-12-15T16:56:50.082Z,69.55
2022-12-15T16:59:35.705Z,75.32
2022-12-15T17:02:29.468Z,76.75
2022-12-15T17:04:57.387Z,73.43
2022-12-15T17:07:26.992Z,80.10
2022-12-15T17:09:53.776Z,77.50
2022-12-15T17:12:20.590Z,73.57
2022-12-15T17:14:47.493Z,75.47
2022-12-15T17:17:16.684Z,72.53
2022-12-15T17:19:52.707Z,70.82
2022-12-15T17:22:30.325Z,73.18
2022-12-15T17:24:57.077Z,76.63
2022-12-15T17:27:28.714Z,72.88
2022-12-15T17:29:57.449Z,74.53
2022-12-15T17:32:24.212Z,74.85
2022-12-15T17:34:51.931Z,76.72
2022-12-15T17:37:18.892Z,74.38
2022-12-15T17:39:51.087Z,71.90
2022-12-15T17:42:20.584Z,82.18
2022-12-15T17:44:48.793Z,82.85
2022-12-15T17:47:16.575Z,74.18
2022-12-15T17:49:43.974Z,78.15
2022-12-15T17:52:13.424Z,78.57
2022-12-15T17:54:40.180Z,75.10
2022-12-15T17:57:11.593Z,76.40
2022-12-15T17:59:38.352Z,75.85
2022-12-15T18:02:05.216Z,68.60
2022-12-15T18:04:32.007Z,71.28
2022-12-15T18:07:02.022Z,82.88
2022-12-15T18:09:29.672Z,80.90
2022-12-15T18:11:56.440Z,74.10
2022-12-15T18:14:23.230Z,69.82
2022-12-15T18:16:50.105Z,71.50
2022-12-15T18:19:16.907Z,78.55
2022-12-15T18:21:44.031Z,70.22
2022-12-15T18:24:13.765Z,78.03
2022-12-15T18:26:40.513Z,72.50
2022-12-15T18:29:18.085Z,73.13
2022-12-15T18:31:47.118Z,74.38
2022-12-15T18:34:19.336Z,69.13
2022-12-15T18:36:46.278Z,69.00
2022-12-15T18:39:19.070Z,86.50
2022-12-15T18:41:46.614Z,78.22
2022-12-15T18:44:25.982Z,66.28
2022-12-15T18:46:55.195Z,70.18
2022-12-15T18:49:22.516Z,77.03
2022-12-15T18:51:49.483Z,72.85
2022-12-15T18:54:22.405Z,74.10
2022-12-15T18:56:49.505Z,72.03
2022-12-15T18:59:17.746Z,75.43
2022-12-15T19:01:46.368Z,77.35
2022-12-15T19:04:13.861Z,75.95
2022-12-15T19:06:41.140Z,74.93
2022-12-15T19:09:15.891Z,75.72
2022-12-15T19:12:06.172Z,75.22
2022-12-15T19:14:42.553Z,71.72
2022-12-15T19:17:33.919Z,76.90
2022-12-15T19:20:21.304Z,75.45
2022-12-15T19:22:48.945Z,80.43
2022-12-15T19:25:28.227Z,73.63
2022-12-15T19:27:59.276Z,76.43
2022-12-15T19:30:28.612Z,76.63
2022-12-15T19:32:55.898Z,67.35
2022-12-15T19:35:22.715Z,73.20
2022-12-15T19:37:50.170Z,70.03
2022-12-15T19:40:27.765Z,69.30
2022-12-15T19:42:55.713Z,69.68
2022-12-15T19:45:25.249Z,67.38
2022-12-15T19:47:52.093Z,71.55
2022-12-15T19:50:25.559Z,64.82
2022-12-15T19:52:58.772Z,53.23
2022-12-15T19:55:29.430Z,57.30
2022-12-15T19:57:56.512Z,58.42
2022-12-15T20:00:27.424Z,56.58
2022-12-15T20:02:55.672Z,55.90
2022-12-15T20:05:25.461Z,58.65
2022-12-15T20:07:53.784Z,59.22
2022-12-15T20:10:29.316Z,50.05
2022-12-15T20:12:56.687Z,54.63
2022-12-15T20:15:26.385Z,55.35
2022-12-15T20:17:59.020Z,54.08
2022-12-15T20:20:28.342Z,52.17
2022-12-15T20:22:59.133Z,47.17
2022-12-15T20:25:32.923Z,49.72
2022-12-15T20:28:02.873Z,48.85
2022-12-15T20:30:33.057Z,49.28
2022-12-15T20:33:01.312Z,47.63
2022-12-15T20:35:29.209Z,45.00
2022-12-15T20:37:55.934Z,48.13
2022-12-15T20:40:25.877Z,45.13
2022-12-15T20:42:53.925Z,42.80
2022-12-15T20:45:24.447Z,46.20
2022-12-15T20:47:52.766Z,42.97
2022-12-15T20:50:33.645Z,46.05
2022-12-15T20:53:00.382Z,42.40
2022-12-15T20:55:27.355Z,42.47
2022-12-15T20:57:54.502Z,43.45
2022-12-15T21:00:22.248Z,41.95
2022-12-15T21:02:49.348Z,42.20
2022-12-15T21:05:22.604Z,43.28
2022-12-15T21:07:50.180Z,41.10
2022-12-15T21:10:18.349Z,40.92
2022-12-15T21:12:47.178Z,42.60
2022-12-15T21:15:20.376Z,41.72
2022-12-15T21:17:57.892Z,38.53
2022-12-15T21:20:30.575Z,42.17
2022-12-15T21:22:57.749Z,42.13
2022-12-15T21:25:26.512Z,41.42
2022-12-15T21:27:53.320Z,41.15
2022-12-15T21:30:23.073Z,38.83
2022-12-15T21:32:50.855Z,41.30
2022-12-15T21:35:18.979Z,39.55
2022-12-15T21:37:49.648Z,38.65
2022-12-15T21:40:24.005Z,38.33
2022-12-15T21:42:51.244Z,35.95
2022-12-15T21:45:20.187Z,36.75
2022-12-15T21:48:07.035Z,36.38
2022-12-15T21:50:34.409Z,33.17
2022-12-15T21:53:01.985Z,34.33
2022-12-15T21:55:29.697Z,33.72
2022-12-15T21:57:57.370Z,35.97
2022-12-15T22:00:25.136Z,36.15
2022-12-15T22:02:53.531Z,32.10
2022-12-15T22:05:25.364Z,35.72
2022-12-15T22:07:52.146Z,32.80
2022-12-15T22:10:19.225Z,33.05
2022-12-15T22:12:57.522Z,35.97
2022-12-15T22:15:26.394Z,35.70
2022-12-15T22:17:53.102Z,31.92
2022-12-15T22:20:22.354Z,33.67
2022-12-15T22:22:49.642Z,31.35
2022-12-15T22:25:19.518Z,29.35
2022-12-15T22:27:46.794Z,31.67
2022-12-15T22:30:25.747Z,33.08
2022-12-15T22:32:52.742Z,33.28
2022-12-15T22:35:23.503Z,32.40
2022-12-15T22:37:53.529Z,33.70
2022-12-15T22:40:21.893Z,30.30
2022-12-15T22:42:55.341Z,30.45
2022-12-15T22:45:23.990Z,30.70
2022-12-15T22:47:52.295Z,27.45
2022-12-15T22:50:23.550Z,28.27
2022-12-15T22:52:50.676Z,29.13
2022-12-15T22:55:20.211Z,29.35
2022-12-15T22:57:58.215Z,29.00
2022-12-15T23:00:24.899Z,26.92
2022-12-15T23:02:51.927Z,26.20
2022-12-15T23:05:20.235Z,25.42
2022-12-15T23:07:47.194Z,28.98
2022-12-15T23:10:34.908Z,24.63
2022-12-15T23:13:01.724Z,25.48
2022-12-15T23:15:47.740Z,26.70
2022-12-15T23:18:14.926Z,25.60
2022-12-15T23:20:42.390Z,25.88
2022-12-15T23:23:12.373Z,26.98
2022-12-15T23:25:39.171Z,22.05
2022-12-15T23:28:06.172Z,25.10
2022-12-15T23:30:32.961Z,24.55
2022-12-15T23:32:59.902Z,25.30
2022-12-15T23:35:26.663Z,23.25
2022-12-15T23:37:53.478Z,28.17
2022-12-15T23:40:22.351Z,29.10
2022-12-15T23:42:50.056Z,27.77
2022-12-15T23:45:18.143Z,24.17
2022-12-15T23:47:44.977Z,22.80
2022-12-15T23:50:11.866Z,25.10
2022-12-15T23:52:38.839Z,23.90
2022-12-15T23:55:09.319Z,23.70
2022-12-15T23:57:37.777Z,24.77
